createdAt,value
2023-03-13T00:01:36.514Z,19.70
2023-03-13T00:04:03.476Z,16.88
2023-03-13T00:06:35.471Z,21.92
2023-03-13T00:09:03.856Z,27.02
2023-03-13T00:11:30.948Z,18.50
2023-03-13T00:13:59.282Z,30.15
2023-03-13T00:16:26.149Z,20.80
2023-03-13T00:18:54.074Z,19.83
2023-03-13T00:21:23.509Z,23.60
2023-03-13T00:23:50.468Z,16.70
2023-03-13T00:26:22.831Z,23.38
2023-03-13T00:28:51.017Z,22.42
2023-03-13T00:31:21.920Z,17.20
2023-03-13T00:33:51.913Z,22.75
2023-03-13T00:36:24.084Z,17.65
2023-03-13T00:38:51.864Z,22.58
2023-03-13T00:41:23.853Z,27.45
2023-03-13T00:43:50.704Z,17.90
2023-03-13T00:46:21.085Z,20.88
2023-03-13T00:48:48.197Z,23.70
2023-03-13T00:51:16.344Z,21.17
2023-03-13T00:53:43.329Z,23.35
2023-03-13T00:56:12.466Z,25.58
2023-03-13T00:58:40.665Z,23.98
2023-03-13T01:01:15.743Z,25.42
2023-03-13T01:03:43.865Z,27.05
2023-03-13T01:06:13.223Z,20.02
2023-03-13T01:08:39.874Z,18.63
2023-03-13T01:11:18.024Z,23.30
2023-03-13T01:13:44.774Z,19.90
2023-03-13T01:16:18.777Z,24.52
2023-03-13T01:18:47.895Z,20.02
2023-03-13T01:21:15.460Z,17.45
2023-03-13T01:23:42.023Z,26.00
2023-03-13T01:26:08.986Z,25.88
2023-03-13T01:28:36.364Z,17.33
2023-03-13T01:31:22.397Z,16.10
2023-03-13T01:33:51.280Z,21.08
2023-03-13T01:36:19.022Z,20.38
2023-03-13T01:38:49.323Z,17.20
2023-03-13T01:41:16.100Z,18.73
2023-03-13T01:43:44.033Z,14.45
2023-03-13T01:46:19.909Z,16.92
2023-03-13T01:49:06.145Z,19.50
2023-03-13T01:51:46.394Z,21.90
2023-03-13T01:54:23.303Z,26.13
2023-03-13T01:57:02.115Z,13.70
2023-03-13T01:59:48.473Z,18.65
2023-03-13T02:02:16.228Z,15.85
2023-03-13T02:04:48.053Z,20.55
2023-03-13T02:07:18.741Z,15.70
2023-03-13T02:09:51.218Z,17.98
2023-03-13T02:12:22.246Z,15.05
2023-03-13T02:14:50.534Z,15.38
2023-03-13T02:19:51.886Z,20.77
2023-03-13T02:22:27.836Z,17.13
2023-03-13T02:25:22.245Z,14.63
2023-03-13T02:27:51.533Z,16.80
2023-03-13T02:30:18.692Z,24.23
2023-03-13T02:32:45.744Z,28.27
2023-03-13T02:35:15.268Z,15.80
2023-03-13T02:37:44.075Z,23.60
2023-03-13T02:40:13.661Z,13.90
2023-03-13T02:42:42.561Z,19.30
2023-03-13T02:45:10.475Z,17.23
2023-03-13T02:47:37.091Z,19.67
2023-03-13T02:50:03.820Z,21.10
2023-03-13T02:52:33.248Z,21.27
2023-03-13T02:55:03.481Z,17.13
2023-03-13T02:57:31.768Z,42.28
2023-03-13T02:59:58.508Z,16.67
2023-03-13T03:02:25.161Z,15.98
2023-03-13T03:04:51.768Z,18.70
2023-03-13T03:07:18.332Z,18.92
2023-03-13T03:09:44.866Z,17.48
2023-03-13T03:12:11.413Z,20.55
2023-03-13T03:14:38.174Z,16.35
2023-03-13T03:17:05.042Z,17.63
2023-03-13T03:19:31.696Z,21.55
2023-03-13T03:21:58.268Z,23.15
2023-03-13T03:24:24.980Z,15.48
2023-03-13T03:26:51.578Z,17.58
2023-03-13T03:29:18.156Z,28.52
2023-03-13T03:31:44.801Z,16.73
2023-03-13T03:34:11.484Z,20.55
2023-03-13T03:36:38.050Z,14.52
2023-03-13T03:39:05.350Z,22.55
2023-03-13T03:41:31.950Z,19.17
2023-03-13T03:43:58.476Z,23.17
2023-03-13T03:46:25.035Z,14.80
2023-03-13T03:48:51.566Z,11.60
2023-03-13T03:51:18.200Z,19.00
2023-03-13T03:53:44.773Z,12.93
2023-03-13T03:56:11.349Z,16.80
2023-03-13T03:58:37.974Z,28.30
2023-03-13T04:01:05.056Z,19.48
2023-03-13T04:03:31.684Z,21.17
2023-03-13T04:05:58.396Z,12.20
2023-03-13T04:08:25.116Z,12.13
2023-03-13T04:10:51.764Z,14.40
2023-03-13T04:13:18.447Z,16.90
2023-03-13T04:15:45.017Z,17.27
2023-03-13T04:18:11.605Z,14.50
2023-03-13T04:20:38.171Z,16.42
2023-03-13T04:23:04.900Z,17.02
2023-03-13T04:25:31.521Z,19.08
2023-03-13T04:27:58.044Z,15.77
2023-03-13T04:30:24.621Z,19.15
2023-03-13T04:32:51.261Z,11.35
2023-03-13T04:35:18.086Z,14.02
2023-03-13T04:37:44.684Z,8.80
2023-03-13T04:40:12.689Z,15.05
2023-03-13T04:42:40.761Z,7.88
2023-03-13T04:45:10.404Z,12.93
2023-03-13T04:47:36.967Z,30.98
2023-03-13T04:50:03.747Z,16.80
2023-03-13T04:52:30.333Z,13.85
2023-03-13T04:54:56.921Z,17.73
2023-03-13T04:57:23.561Z,21.00
2023-03-13T04:59:50.098Z,20.33
2023-03-13T05:02:16.671Z,15.20
2023-03-13T05:04:43.342Z,19.48
2023-03-13T05:07:09.881Z,13.30
2023-03-13T05:09:36.469Z,10.82
2023-03-13T05:12:03.049Z,13.52
2023-03-13T05:14:29.658Z,18.80
2023-03-13T05:16:56.239Z,20.40
2023-03-13T05:19:22.848Z,13.75
2023-03-13T05:21:49.385Z,15.77
2023-03-13T05:24:15.968Z,13.57
2023-03-13T05:26:42.533Z,11.65
2023-03-13T05:29:09.067Z,15.73
2023-03-13T05:31:35.652Z,14.02
2023-03-13T05:34:02.284Z,16.67
2023-03-13T05:36:28.862Z,12.95
2023-03-13T05:38:55.523Z,11.85
2023-03-13T05:41:22.095Z,9.07
2023-03-13T05:43:48.686Z,12.25
2023-03-13T05:46:15.309Z,14.25
2023-03-13T05:48:41.886Z,9.23
2023-03-13T05:51:08.441Z,11.65
2023-03-13T05:53:35.022Z,10.32
2023-03-13T05:56:01.552Z,11.77
2023-03-13T05:58:28.147Z,13.13
2023-03-13T06:00:54.788Z,13.98
2023-03-13T06:03:21.614Z,13.25
2023-03-13T06:05:48.187Z,13.38
2023-03-13T06:08:14.804Z,18.80
2023-03-13T06:10:41.345Z,15.55
2023-03-13T06:13:19.525Z,13.63
2023-03-13T06:15:54.477Z,14.40
2023-03-13T06:18:21.181Z,12.93
2023-03-13T06:20:49.105Z,15.45
2023-03-13T06:23:16.275Z,12.13
2023-03-13T06:25:42.956Z,13.93
2023-03-13T06:28:09.544Z,17.75
2023-03-13T06:30:36.734Z,17.33
2023-03-13T06:33:03.661Z,15.32
2023-03-13T06:35:30.374Z,13.85
2023-03-13T06:37:57.242Z,13.65
2023-03-13T06:40:23.900Z,14.35
2023-03-13T06:42:50.474Z,14.82
2023-03-13T06:45:17.110Z,15.55
2023-03-13T06:47:43.789Z,13.35
2023-03-13T06:50:11.085Z,12.73
2023-03-13T06:52:43.977Z,14.38
2023-03-13T06:55:11.334Z,12.10
2023-03-13T06:57:38.389Z,8.90
2023-03-13T07:00:06.444Z,11.50
2023-03-13T07:02:33.139Z,12.73
2023-03-13T07:05:00.045Z,11.68
2023-03-13T07:07:31.760Z,12.90
2023-03-13T07:09:59.163Z,15.68
2023-03-13T07:12:25.735Z,15.27
2023-03-13T07:14:52.353Z,16.50
2023-03-13T07:17:19.186Z,16.20
2023-03-13T07:19:45.824Z,18.63
2023-03-13T07:22:12.481Z,18.80
2023-03-13T07:24:39.153Z,17.85
2023-03-13T07:27:07.960Z,19.42
2023-03-13T07:29:36.032Z,20.88
2023-03-13T07:32:02.718Z,21.90
2023-03-13T07:34:29.315Z,24.05
2023-03-13T07:36:55.920Z,21.48
2023-03-13T07:39:22.497Z,19.00
2023-03-13T07:41:49.040Z,21.67
2023-03-13T07:44:15.723Z,21.35
2023-03-13T07:46:42.431Z,18.85
2023-03-13T07:49:09.139Z,19.58
2023-03-13T07:51:43.502Z,19.20
2023-03-13T07:54:11.750Z,20.65
2023-03-13T07:56:38.584Z,22.80
2023-03-13T07:59:05.540Z,18.05
2023-03-13T08:01:32.189Z,19.55
2023-03-13T08:04:01.895Z,18.63
2023-03-13T08:06:32.683Z,17.50
2023-03-13T08:09:00.408Z,16.52
2023-03-13T08:11:28.487Z,16.90
2023-03-13T08:13:56.648Z,13.32
2023-03-13T08:16:34.427Z,12.70
2023-03-13T08:19:03.657Z,14.18
2023-03-13T08:21:34.988Z,12.63
2023-03-13T08:24:05.929Z,9.45
2023-03-13T08:26:34.823Z,16.55
2023-03-13T08:29:03.868Z,12.65
2023-03-13T08:31:33.123Z,14.88
2023-03-13T08:33:59.812Z,14.35
2023-03-13T08:36:32.764Z,10.50
2023-03-13T08:39:29.866Z,9.85
2023-03-13T08:41:56.438Z,8.13
2023-03-13T08:44:23.117Z,8.32
2023-03-13T08:46:49.672Z,11.13
2023-03-13T08:49:17.859Z,7.22
2023-03-13T08:51:44.602Z,10.18
2023-03-13T08:54:11.223Z,9.38
2023-03-13T08:56:37.846Z,8.10
2023-03-13T08:59:05.744Z,10.93
2023-03-13T09:01:34.468Z,9.43
2023-03-13T09:04:03.827Z,8.30
2023-03-13T09:06:30.705Z,6.95
2023-03-13T09:08:58.204Z,9.32
2023-03-13T09:11:25.350Z,8.48
2023-03-13T09:13:52.120Z,8.57
2023-03-13T09:16:23.460Z,6.97
2023-03-13T09:18:50.795Z,10.90
2023-03-13T09:21:22.549Z,8.43
2023-03-13T09:23:49.481Z,7.88
2023-03-13T09:26:17.655Z,11.73
2023-03-13T09:28:44.942Z,6.80
2023-03-13T09:31:16.491Z,10.25
2023-03-13T09:33:44.834Z,11.32
2023-03-13T09:36:12.066Z,5.85
2023-03-13T09:38:39.314Z,7.85
2023-03-13T09:41:12.027Z,6.80
2023-03-13T09:43:51.096Z,9.45
2023-03-13T09:46:24.139Z,5.63
2023-03-13T09:48:56.093Z,7.35
2023-03-13T09:51:36.645Z,7.15
2023-03-13T09:54:09.973Z,10.20
2023-03-13T09:56:56.090Z,10.07
2023-03-13T09:59:48.758Z,6.93
2023-03-13T10:02:35.761Z,9.88
2023-03-13T10:05:24.591Z,7.90
2023-03-13T10:07:57.802Z,13.95
2023-03-13T10:11:00.588Z,7.20
2023-03-13T10:13:37.512Z,9.75
2023-03-13T10:16:13.232Z,7.53
2023-03-13T10:18:45.304Z,8.23
2023-03-13T10:21:23.206Z,8.48
2023-03-13T10:24:00.840Z,6.72
2023-03-13T10:26:36.951Z,12.20
2023-03-13T10:29:23.378Z,7.75
2023-03-13T10:31:57.564Z,9.93
2023-03-13T10:34:29.881Z,9.10
2023-03-13T10:37:01.784Z,8.57
2023-03-13T10:39:30.214Z,7.75
2023-03-13T10:42:00.972Z,9.52
2023-03-13T10:44:33.884Z,6.40
2023-03-13T10:47:02.743Z,6.03
2023-03-13T10:49:30.964Z,4.57
2023-03-13T10:52:06.447Z,5.20
2023-03-13T10:54:37.945Z,6.22
2023-03-13T10:57:31.721Z,6.25
2023-03-13T10:59:59.269Z,3.80
2023-03-13T11:02:37.326Z,6.47
2023-03-13T11:05:26.236Z,8.40
2023-03-13T11:07:53.618Z,6.93
2023-03-13T11:10:32.571Z,6.93
2023-03-13T11:12:59.517Z,7.72
2023-03-13T11:15:42.125Z,4.72
2023-03-13T11:18:39.608Z,3.97
2023-03-13T11:21:17.731Z,6.05
2023-03-13T11:23:49.789Z,7.53
2023-03-13T11:26:21.989Z,5.85
2023-03-13T11:28:57.281Z,7.95
2023-03-13T11:31:33.158Z,8.13
2023-03-13T11:34:08.418Z,6.55
2023-03-13T11:36:40.002Z,7.72
2023-03-13T11:39:11.742Z,6.43
2023-03-13T11:42:01.067Z,6.38
2023-03-13T11:44:27.659Z,2.53
2023-03-13T11:47:13.517Z,5.80
2023-03-13T11:50:15.298Z,4.53
2023-03-13T11:53:17.548Z,5.05
2023-03-13T11:56:09.214Z,4.45
2023-03-13T11:58:59.187Z,4.10
2023-03-13T12:01:28.369Z,6.57
2023-03-13T12:03:59.044Z,4.75
2023-03-13T12:06:47.636Z,4.90
2023-03-13T12:09:28.731Z,3.97
2023-03-13T12:12:03.794Z,7.38
2023-03-13T12:14:33.361Z,7.55
2023-03-13T12:17:04.150Z,4.03
2023-03-13T12:19:49.595Z,5.45
2023-03-13T12:22:25.037Z,3.50
2023-03-13T12:25:06.388Z,4.25
2023-03-13T12:27:37.911Z,4.20
2023-03-13T12:30:18.673Z,4.55
2023-03-13T12:33:03.226Z,5.93
2023-03-13T12:35:34.630Z,2.83
2023-03-13T12:38:04.150Z,6.93
2023-03-13T12:40:49.410Z,5.72
2023-03-13T12:43:22.460Z,4.40
2023-03-13T12:46:12.038Z,4.28
2023-03-13T12:48:47.823Z,4.20
2023-03-13T12:51:29.417Z,4.13
2023-03-13T12:54:17.418Z,3.33
2023-03-13T12:57:05.583Z,5.50
2023-03-13T12:59:42.175Z,4.55
2023-03-13T13:02:22.479Z,4.38
2023-03-13T13:04:51.047Z,5.70
2023-03-13T13:10:10.545Z,4.30
2023-03-13T13:12:41.758Z,5.40
2023-03-13T13:15:17.909Z,3.03
2023-03-13T13:18:08.277Z,3.40
2023-03-13T13:20:40.922Z,4.47
2023-03-13T13:23:27.922Z,5.80
2023-03-13T13:25:56.377Z,1.85
2023-03-13T13:28:28.633Z,4.18
2023-03-13T13:30:56.514Z,2.08
2023-03-13T13:33:30.840Z,3.55
2023-03-13T13:36:27.401Z,2.17
2023-03-13T13:38:55.388Z,2.17
2023-03-13T13:41:33.345Z,2.40
2023-03-13T13:44:22.081Z,2.00
2023-03-13T13:46:48.860Z,2.92
2023-03-13T13:49:15.773Z,1.85
2023-03-13T13:52:06.223Z,3.28
2023-03-13T13:54:33.174Z,4.28
2023-03-13T13:57:02.347Z,2.05
2023-03-13T13:59:34.693Z,3.55
2023-03-13T14:02:04.403Z,4.05
2023-03-13T14:04:45.484Z,2.10
2023-03-13T14:07:37.618Z,2.30
2023-03-13T14:10:07.354Z,1.52
2023-03-13T14:12:37.399Z,2.00
2023-03-13T14:15:20.077Z,2.38
2023-03-13T14:17:52.484Z,1.52
2023-03-13T14:20:27.339Z,4.57
2023-03-13T14:22:55.448Z,4.35
2023-03-13T14:25:23.149Z,3.25
2023-03-13T14:27:50.528Z,1.43
2023-03-13T14:30:19.295Z,1.75
2023-03-13T14:32:46.630Z,4.32
2023-03-13T14:35:19.401Z,2.25
2023-03-13T14:37:48.762Z,1.85
2023-03-13T14:40:24.722Z,1.45
2023-03-13T14:42:57.122Z,3.60
2023-03-13T14:45:30.529Z,4.20
2023-03-13T14:48:03.375Z,2.67
2023-03-13T14:50:30.139Z,3.05
2023-03-13T14:53:05.237Z,2.72
2023-03-13T14:55:34.799Z,2.17
2023-03-13T14:58:05.239Z,2.38
2023-03-13T15:00:35.609Z,2.40
2023-03-13T15:03:16.464Z,2.22
2023-03-13T15:05:47.354Z,4.80
2023-03-13T15:08:16.164Z,2.65
2023-03-13T15:10:43.273Z,1.98
2023-03-13T15:13:15.977Z,1.60
2023-03-13T15:15:42.867Z,2.67
2023-03-13T15:18:29.819Z,5.43
2023-03-13T15:21:18.648Z,2.85
2023-03-13T15:23:50.315Z,1.95
2023-03-13T15:26:17.393Z,2.40
2023-03-13T15:28:44.294Z,4.78
2023-03-13T15:31:13.020Z,1.33
2023-03-13T15:33:39.978Z,1.25
2023-03-13T15:36:06.964Z,2.25
2023-03-13T15:38:33.968Z,3.10
2023-03-13T15:41:00.561Z,1.77
2023-03-13T15:43:27.318Z,2.15
2023-03-13T15:45:54.034Z,1.98
2023-03-13T15:48:23.479Z,1.83
2023-03-13T15:50:54.726Z,3.03
2023-03-13T15:53:39.481Z,0.98
2023-03-13T15:56:17.274Z,1.52
2023-03-13T15:58:44.896Z,2.97
2023-03-13T16:01:13.061Z,2.50
2023-03-13T16:03:40.269Z,1.52
2023-03-13T16:06:28.102Z,3.95
2023-03-13T16:08:54.677Z,2.80
2023-03-13T16:11:21.295Z,3.53
2023-03-13T16:13:47.866Z,1.70
2023-03-13T16:16:20.081Z,3.97
2023-03-13T16:18:48.350Z,2.38
2023-03-13T16:21:26.646Z,3.67
2023-03-13T16:23:53.572Z,2.25
2023-03-13T16:26:25.951Z,1.65
2023-03-13T16:28:52.958Z,2.17
2023-03-13T16:31:21.151Z,5.10
2023-03-13T16:33:48.498Z,1.42
2023-03-13T16:36:20.586Z,1.52
2023-03-13T16:38:47.985Z,1.25
2023-03-13T16:41:18.961Z,3.95
2023-03-13T16:43:45.985Z,2.13
2023-03-13T16:46:15.235Z,1.95
2023-03-13T16:48:41.918Z,2.78
2023-03-13T16:51:18.580Z,1.70
2023-03-13T16:53:46.554Z,2.10
2023-03-13T16:56:37.236Z,1.88
2023-03-13T16:59:07.728Z,2.60
2023-03-13T17:01:35.445Z,2.22
2023-03-13T17:04:02.416Z,1.30
2023-03-13T17:06:33.241Z,2.33
2023-03-13T17:09:02.081Z,1.92
2023-03-13T17:11:29.184Z,2.40
2023-03-13T17:13:55.963Z,1.70
2023-03-13T17:16:34.029Z,4.45
2023-03-13T17:19:01.848Z,3.20
2023-03-13T17:21:31.895Z,3.97
2023-03-13T17:24:00.486Z,1.95
2023-03-13T17:28:56.506Z,2.57
2023-03-13T17:33:50.853Z,4.82
2023-03-13T17:36:21.975Z,2.67
2023-03-13T17:38:50.773Z,1.80
2023-03-13T17:41:19.976Z,3.53
2023-03-13T17:43:46.926Z,2.03
2023-03-13T17:46:18.431Z,3.88
2023-03-13T17:48:46.124Z,3.15
2023-03-13T17:51:17.652Z,3.07
2023-03-13T17:53:44.332Z,3.78
2023-03-13T17:56:16.483Z,5.38
2023-03-13T17:58:43.070Z,2.25
2023-03-13T18:01:12.534Z,8.45
2023-03-13T18:03:39.379Z,6.35
2023-03-13T18:06:06.243Z,3.10
2023-03-13T18:08:32.800Z,3.40
2023-03-13T18:10:59.346Z,4.15
2023-03-13T18:13:25.864Z,4.88
2023-03-13T18:15:52.479Z,4.65
2023-03-13T18:18:19.102Z,4.78
2023-03-13T18:20:45.665Z,3.40
2023-03-13T18:23:12.219Z,3.03
2023-03-13T18:25:38.747Z,3.85
2023-03-13T18:28:05.324Z,2.95
2023-03-13T18:30:31.890Z,2.53
2023-03-13T18:32:58.496Z,2.45
2023-03-13T18:35:25.180Z,2.75
2023-03-13T18:37:51.775Z,3.10
2023-03-13T18:40:26.741Z,5.07
2023-03-13T18:42:53.316Z,2.05
2023-03-13T18:45:22.597Z,2.90
2023-03-13T18:47:50.533Z,6.20
2023-03-13T18:50:23.033Z,6.90
2023-03-13T18:52:49.626Z,4.95
2023-03-13T18:55:16.841Z,4.20
2023-03-13T18:57:43.401Z,4.85
2023-03-13T19:00:19.126Z,2.38
2023-03-13T19:02:45.825Z,5.82
2023-03-13T19:05:12.915Z,2.92
2023-03-13T19:07:39.893Z,4.60
2023-03-13T19:10:16.871Z,3.92
2023-03-13T19:12:43.449Z,4.05
2023-03-13T19:15:10.478Z,3.03
2023-03-13T19:17:37.046Z,2.75
2023-03-13T19:20:04.400Z,3.03
2023-03-13T19:22:31.005Z,5.68
2023-03-13T19:24:58.927Z,2.38
2023-03-13T19:27:25.500Z,3.88
2023-03-13T19:29:52.111Z,2.60
2023-03-13T19:32:19.278Z,4.35
2023-03-13T19:34:45.858Z,5.63
2023-03-13T19:37:16.245Z,3.17
2023-03-13T19:39:42.819Z,4.68
2023-03-13T19:42:09.489Z,4.45
2023-03-13T19:44:36.612Z,7.50
2023-03-13T19:47:04.752Z,3.47
2023-03-13T19:49:31.438Z,9.02
2023-03-13T19:51:58.574Z,5.40
2023-03-13T19:54:25.175Z,7.72
2023-03-13T19:56:53.481Z,4.35
2023-03-13T19:59:23.175Z,5.25
2023-03-13T20:01:49.963Z,3.70
2023-03-13T20:04:16.546Z,5.95
2023-03-13T20:06:43.750Z,2.90
2023-03-13T20:09:12.460Z,4.75
2023-03-13T20:11:39.499Z,5.88
2023-03-13T20:14:06.950Z,5.20
2023-03-13T20:16:35.151Z,6.13
2023-03-13T20:19:02.811Z,5.68
2023-03-13T20:21:34.466Z,4.63
2023-03-13T20:24:01.189Z,5.45
2023-03-13T20:26:28.732Z,5.88
2023-03-13T20:28:56.482Z,3.65
2023-03-13T20:31:26.083Z,7.00
2023-03-13T20:33:52.804Z,4.93
2023-03-13T20:36:20.657Z,8.07
2023-03-13T20:38:47.325Z,5.88
2023-03-13T20:41:14.777Z,6.25
2023-03-13T20:43:41.395Z,4.35
2023-03-13T20:46:08.349Z,8.32
2023-03-13T20:48:37.137Z,4.60
2023-03-13T20:51:03.939Z,3.47
2023-03-13T20:53:30.481Z,9.77
2023-03-13T20:55:57.039Z,6.70
2023-03-13T20:58:24.176Z,4.30
2023-03-13T21:00:50.719Z,4.30
2023-03-13T21:03:17.681Z,6.35
2023-03-13T21:05:44.755Z,6.30
2023-03-13T21:08:11.689Z,7.80
2023-03-13T21:10:39.806Z,6.15
2023-03-13T21:13:08.682Z,4.78
2023-03-13T21:15:35.693Z,6.03
2023-03-13T21:18:03.003Z,6.68
2023-03-13T21:20:30.452Z,4.65
2023-03-13T21:22:57.008Z,4.57
2023-03-13T21:25:24.056Z,4.70
2023-03-13T21:27:50.833Z,6.18
2023-03-13T21:30:20.420Z,7.30
2023-03-13T21:32:47.948Z,5.57
2023-03-13T21:35:14.956Z,6.80
2023-03-13T21:37:42.776Z,7.53
2023-03-13T21:40:10.408Z,9.93
2023-03-13T21:42:37.589Z,5.93
2023-03-13T21:45:05.315Z,4.57
2023-03-13T21:47:36.680Z,7.00
2023-03-13T21:50:06.079Z,6.82
2023-03-13T21:52:34.407Z,5.45
2023-03-13T21:55:03.592Z,6.10
2023-03-13T21:57:30.195Z,7.40
2023-03-13T21:59:56.780Z,6.57
2023-03-13T22:02:23.343Z,5.80
2023-03-13T22:04:49.919Z,8.15
2023-03-13T22:07:16.493Z,5.53
2023-03-13T22:09:43.113Z,8.48
2023-03-13T22:12:09.675Z,8.18
2023-03-13T22:14:36.375Z,4.43
2023-03-13T22:17:02.929Z,4.45
2023-03-13T22:19:29.541Z,5.75
2023-03-13T22:21:56.088Z,7.82
2023-03-13T22:24:22.771Z,5.50
2023-03-13T22:26:49.471Z,5.50
2023-03-13T22:29:16.022Z,7.30
2023-03-13T22:31:42.613Z,5.85
2023-03-13T22:34:09.232Z,5.70
2023-03-13T22:36:35.846Z,8.75
2023-03-13T22:39:02.405Z,5.03
2023-03-13T22:41:28.930Z,4.75
2023-03-13T22:43:55.488Z,8.73
2023-03-13T22:46:22.574Z,7.82
2023-03-13T22:48:49.133Z,9.18
2023-03-13T22:51:16.729Z,5.72
2023-03-13T22:53:43.347Z,5.23
2023-03-13T22:56:11.190Z,6.60
2023-03-13T22:58:38.234Z,6.32
2023-03-13T23:01:10.145Z,8.45
2023-03-13T23:03:36.813Z,6.63
2023-03-13T23:06:24.812Z,6.78
2023-03-13T23:08:51.656Z,6.97
2023-03-13T23:11:19.088Z,8.15
2023-03-13T23:13:45.636Z,8.85
2023-03-13T23:16:12.745Z,6.40
2023-03-13T23:18:39.835Z,4.68
2023-03-13T23:21:08.648Z,6.70
2023-03-13T23:23:35.642Z,4.60
2023-03-13T23:26:03.073Z,8.55
2023-03-13T23:28:29.649Z,4.32
2023-03-13T23:30:56.195Z,7.05
2023-03-13T23:33:22.827Z,3.70
2023-03-13T23:35:49.429Z,5.25
2023-03-13T23:38:18.451Z,5.45
2023-03-13T23:40:45.179Z,3.20
2023-03-13T23:43:11.759Z,7.50
2023-03-13T23:45:38.371Z,6.88
2023-03-13T23:48:05.260Z,20.55
2023-03-13T23:50:31.838Z,7.60
2023-03-13T23:52:58.478Z,5.60
2023-03-13T23:55:25.066Z,6.22
2023-03-13T23:57:51.629Z,5.65
